sensor_id;sensor_type;location;lat;lon;timestamp;P1;durP1;ratioP1;P2;durP2;ratioP2
15216;SDS011;7711;46.634;14.318;2023-04-23T00:00:18;11.47;;;9.17;;
15216;SDS011;7711;46.634;14.318;2023-04-23T00:02:46;11.17;;;8.93;;
15216;SDS011;7711;46.634;14.318;2023-04-23T00:05:16;9.83;;;8.50;;
15216;SDS011;7711;46.634;14.318;2023-04-23T00:07:46;11.33;;;8.17;;
15216;SDS011;7711;46.634;14.318;2023-04-23T00:10:13;11.63;;;8.70;;
15216;SDS011;7711;46.634;14.318;2023-04-23T00:12:41;11.90;;;9.27;;
15216;SDS011;7711;46.634;14.318;2023-04-23T00:15:09;9.83;;;8.80;;
15216;SDS011;7711;46.634;14.318;2023-04-23T00:17:38;11.17;;;9.03;;
15216;SDS011;7711;46.634;14.318;2023-04-23T00:20:06;10.47;;;8.60;;
15216;SDS011;7711;46.634;14.318;2023-04-23T00:22:34;11.93;;;9.17;;
15216;SDS011;7711;46.634;14.318;2023-04-23T00:25:03;9.97;;;8.20;;
15216;SDS011;7711;46.634;14.318;2023-04-23T00:27:30;11.30;;;8.93;;
15216;SDS011;7711;46.634;14.318;2023-04-23T00:29:57;9.87;;;8.70;;
15216;SDS011;7711;46.634;14.318;2023-04-23T00:32:25;12.93;;;8.73;;
15216;SDS011;7711;46.634;14.318;2023-04-23T00:34:52;11.10;;;8.90;;
15216;SDS011;7711;46.634;14.318;2023-04-23T00:37:20;10.97;;;8.37;;
15216;SDS011;7711;46.634;14.318;2023-04-23T00:39:47;10.47;;;8.63;;
15216;SDS011;7711;46.634;14.318;2023-04-23T00:42:16;11.07;;;8.20;;
15216;SDS011;7711;46.634;14.318;2023-04-23T00:44:43;9.17;;;8.17;;
15216;SDS011;7711;46.634;14.318;2023-04-23T00:47:10;10.80;;;8.30;;
15216;SDS011;7711;46.634;14.318;2023-04-23T00:49:38;12.17;;;9.13;;
15216;SDS011;7711;46.634;14.318;2023-04-23T00:52:07;12.90;;;9.00;;
15216;SDS011;7711;46.634;14.318;2023-04-23T00:54:34;14.83;;;9.17;;
15216;SDS011;7711;46.634;14.318;2023-04-23T00:57:01;11.27;;;8.87;;
15216;SDS011;7711;46.634;14.318;2023-04-23T00:59:30;10.60;;;8.70;;
15216;SDS011;7711;46.634;14.318;2023-04-23T01:01:57;14.40;;;8.87;;
15216;SDS011;7711;46.634;14.318;2023-04-23T01:04:25;11.37;;;8.77;;
15216;SDS011;7711;46.634;14.318;2023-04-23T01:06:54;10.47;;;8.60;;
15216;SDS011;7711;46.634;14.318;2023-04-23T01:09:22;9.60;;;8.60;;
15216;SDS011;7711;46.634;14.318;2023-04-23T01:11:51;10.07;;;8.53;;
15216;SDS011;7711;46.634;14.318;2023-04-23T01:14:19;10.27;;;8.80;;
15216;SDS011;7711;46.634;14.318;2023-04-23T01:16:47;12.63;;;8.97;;
15216;SDS011;7711;46.634;14.318;2023-04-23T01:19:16;10.93;;;8.83;;
15216;SDS011;7711;46.634;14.318;2023-04-23T01:21:44;10.37;;;7.83;;
15216;SDS011;7711;46.634;14.318;2023-04-23T01:24:12;12.90;;;8.43;;
15216;SDS011;7711;46.634;14.318;2023-04-23T01:26:39;12.03;;;9.30;;
15216;SDS011;7711;46.634;14.318;2023-04-23T01:29:07;13.57;;;9.00;;
15216;SDS011;7711;46.634;14.318;2023-04-23T01:31:35;11.77;;;8.03;;
15216;SDS011;7711;46.634;14.318;2023-04-23T01:34:02;10.43;;;8.30;;
15216;SDS011;7711;46.634;14.318;2023-04-23T01:36:30;10.30;;;8.57;;
15216;SDS011;7711;46.634;14.318;2023-04-23T01:38:59;12.47;;;8.43;;
15216;SDS011;7711;46.634;14.318;2023-04-23T01:41:28;10.17;;;8.23;;
15216;SDS011;7711;46.634;14.318;2023-04-23T01:43:56;11.80;;;8.43;;
15216;SDS011;7711;46.634;14.318;2023-04-23T01:46:23;11.00;;;8.50;;
15216;SDS011;7711;46.634;14.318;2023-04-23T01:48:50;13.50;;;9.67;;
15216;SDS011;7711;46.634;14.318;2023-04-23T01:51:18;11.37;;;9.23;;
15216;SDS011;7711;46.634;14.318;2023-04-23T01:53:45;12.10;;;8.73;;
15216;SDS011;7711;46.634;14.318;2023-04-23T01:56:12;11.57;;;8.23;;
15216;SDS011;7711;46.634;14.318;2023-04-23T01:58:43;10.27;;;8.40;;
15216;SDS011;7711;46.634;14.318;2023-04-23T02:01:10;11.57;;;8.67;;
15216;SDS011;7711;46.634;14.318;2023-04-23T02:03:37;10.33;;;8.43;;
15216;SDS011;7711;46.634;14.318;2023-04-23T02:06:04;10.77;;;8.57;;
15216;SDS011;7711;46.634;14.318;2023-04-23T02:08:32;10.33;;;8.50;;
15216;SDS011;7711;46.634;14.318;2023-04-23T02:10:59;15.40;;;9.33;;
15216;SDS011;7711;46.634;14.318;2023-04-23T02:13:26;10.10;;;8.50;;
15216;SDS011;7711;46.634;14.318;2023-04-23T02:15:55;10.57;;;8.23;;
15216;SDS011;7711;46.634;14.318;2023-04-23T02:18:22;10.67;;;9.37;;
15216;SDS011;7711;46.634;14.318;2023-04-23T02:20:49;11.23;;;8.80;;
15216;SDS011;7711;46.634;14.318;2023-04-23T02:23:16;11.73;;;8.90;;
15216;SDS011;7711;46.634;14.318;2023-04-23T02:25:44;10.67;;;9.00;;
15216;SDS011;7711;46.634;14.318;2023-04-23T02:28:11;13.00;;;9.90;;
15216;SDS011;7711;46.634;14.318;2023-04-23T02:30:38;9.80;;;8.67;;
15216;SDS011;7711;46.634;14.318;2023-04-23T02:33:10;10.43;;;9.23;;
15216;SDS011;7711;46.634;14.318;2023-04-23T02:35:38;13.47;;;8.90;;
15216;SDS011;7711;46.634;14.318;2023-04-23T02:38:05;11.87;;;9.07;;
15216;SDS011;7711;46.634;14.318;2023-04-23T02:40:32;13.53;;;9.17;;
15216;SDS011;7711;46.634;14.318;2023-04-23T02:43:00;10.50;;;9.23;;
15216;SDS011;7711;46.634;14.318;2023-04-23T02:45:27;8.90;;;8.00;;
15216;SDS011;7711;46.634;14.318;2023-04-23T02:47:54;15.60;;;9.00;;
15216;SDS011;7711;46.634;14.318;2023-04-23T02:50:23;10.47;;;8.50;;
15216;SDS011;7711;46.634;14.318;2023-04-23T02:52:50;13.17;;;8.93;;
15216;SDS011;7711;46.634;14.318;2023-04-23T02:55:17;12.80;;;8.77;;
15216;SDS011;7711;46.634;14.318;2023-04-23T02:57:44;9.60;;;8.27;;
15216;SDS011;7711;46.634;14.318;2023-04-23T03:00:11;9.93;;;8.50;;
15216;SDS011;7711;46.634;14.318;2023-04-23T03:02:41;12.70;;;9.50;;
15216;SDS011;7711;46.634;14.318;2023-04-23T03:05:08;13.57;;;9.17;;
15216;SDS011;7711;46.634;14.318;2023-04-23T03:07:36;10.67;;;8.33;;
15216;SDS011;7711;46.634;14.318;2023-04-23T03:10:04;11.93;;;8.90;;
15216;SDS011;7711;46.634;14.318;2023-04-23T03:12:32;11.07;;;8.63;;
15216;SDS011;7711;46.634;14.318;2023-04-23T03:14:59;12.40;;;9.07;;
15216;SDS011;7711;46.634;14.318;2023-04-23T03:17:26;9.67;;;8.67;;
15216;SDS011;7711;46.634;14.318;2023-04-23T03:19:53;10.40;;;8.70;;
15216;SDS011;7711;46.634;14.318;2023-04-23T03:22:21;22.60;;;9.53;;
15216;SDS011;7711;46.634;14.318;2023-04-23T03:24:50;11.67;;;8.87;;
15216;SDS011;7711;46.634;14.318;2023-04-23T03:27:17;11.20;;;8.90;;
15216;SDS011;7711;46.634;14.318;2023-04-23T03:29:44;9.67;;;8.37;;
15216;SDS011;7711;46.634;14.318;2023-04-23T03:32:11;11.50;;;8.57;;
15216;SDS011;7711;46.634;14.318;2023-04-23T03:34:38;11.30;;;8.80;;
15216;SDS011;7711;46.634;14.318;2023-04-23T03:37:05;9.00;;;8.03;;
15216;SDS011;7711;46.634;14.318;2023-04-23T03:39:32;10.70;;;9.00;;
15216;SDS011;7711;46.634;14.318;2023-04-23T03:42:01;9.90;;;8.10;;
15216;SDS011;7711;46.634;14.318;2023-04-23T03:44:29;11.47;;;8.70;;
15216;SDS011;7711;46.634;14.318;2023-04-23T03:46:56;11.43;;;8.80;;
15216;SDS011;7711;46.634;14.318;2023-04-23T03:49:24;9.97;;;8.53;;
15216;SDS011;7711;46.634;14.318;2023-04-23T03:51:51;13.10;;;9.47;;
15216;SDS011;7711;46.634;14.318;2023-04-23T03:54:18;13.57;;;9.40;;
15216;SDS011;7711;46.634;14.318;2023-04-23T03:56:47;13.20;;;9.17;;
15216;SDS011;7711;46.634;14.318;2023-04-23T03:59:15;11.80;;;9.17;;
15216;SDS011;7711;46.634;14.318;2023-04-23T04:01:42;9.80;;;8.43;;
15216;SDS011;7711;46.634;14.318;2023-04-23T04:04:09;11.33;;;8.23;;
15216;SDS011;7711;46.634;14.318;2023-04-23T04:06:37;12.40;;;9.50;;
15216;SDS011;7711;46.634;14.318;2023-04-23T04:09:04;10.47;;;8.10;;
15216;SDS011;7711;46.634;14.318;2023-04-23T04:11:32;13.13;;;9.30;;
15216;SDS011;7711;46.634;14.318;2023-04-23T04:13:59;13.27;;;8.83;;
15216;SDS011;7711;46.634;14.318;2023-04-23T04:16:28;14.33;;;9.57;;
15216;SDS011;7711;46.634;14.318;2023-04-23T04:18:55;21.33;;;13.50;;
15216;SDS011;7711;46.634;14.318;2023-04-23T04:21:22;42.13;;;26.20;;
15216;SDS011;7711;46.634;14.318;2023-04-23T04:23:49;30.27;;;20.03;;
15216;SDS011;7711;46.634;14.318;2023-04-23T04:26:17;63.10;;;39.90;;
15216;SDS011;7711;46.634;14.318;2023-04-23T04:28:44;23.60;;;16.10;;
15216;SDS011;7711;46.634;14.318;2023-04-23T04:31:12;16.13;;;10.70;;
15216;SDS011;7711;46.634;14.318;2023-04-23T04:33:41;19.53;;;12.87;;
15216;SDS011;7711;46.634;14.318;2023-04-23T04:36:10;15.73;;;11.20;;
15216;SDS011;7711;46.634;14.318;2023-04-23T04:38:37;12.70;;;10.10;;
15216;SDS011;7711;46.634;14.318;2023-04-23T04:41:05;10.57;;;9.03;;
15216;SDS011;7711;46.634;14.318;2023-04-23T04:43:33;11.53;;;8.70;;
15216;SDS011;7711;46.634;14.318;2023-04-23T04:46:01;12.13;;;8.90;;
15216;SDS011;7711;46.634;14.318;2023-04-23T04:48:29;12.20;;;9.27;;
15216;SDS011;7711;46.634;14.318;2023-04-23T04:50:58;11.80;;;9.57;;
15216;SDS011;7711;46.634;14.318;2023-04-23T04:53:25;10.87;;;9.10;;
15216;SDS011;7711;46.634;14.318;2023-04-23T04:55:52;12.63;;;9.00;;
15216;SDS011;7711;46.634;14.318;2023-04-23T04:58:19;12.57;;;8.40;;
15216;SDS011;7711;46.634;14.318;2023-04-23T05:00:46;10.43;;;8.93;;
15216;SDS011;7711;46.634;14.318;2023-04-23T05:03:15;13.63;;;8.70;;
15216;SDS011;7711;46.634;14.318;2023-04-23T05:05:43;10.90;;;8.60;;
15216;SDS011;7711;46.634;14.318;2023-04-23T05:08:11;10.13;;;8.03;;
15216;SDS011;7711;46.634;14.318;2023-04-23T05:10:40;9.97;;;7.80;;
15216;SDS011;7711;46.634;14.318;2023-04-23T05:13:08;11.07;;;8.73;;
15216;SDS011;7711;46.634;14.318;2023-04-23T05:15:35;11.37;;;8.30;;
15216;SDS011;7711;46.634;14.318;2023-04-23T05:18:03;13.37;;;8.40;;
15216;SDS011;7711;46.634;14.318;2023-04-23T05:20:32;10.33;;;7.73;;
15216;SDS011;7711;46.634;14.318;2023-04-23T05:22:59;9.87;;;7.90;;
15216;SDS011;7711;46.634;14.318;2023-04-23T05:25:28;11.43;;;8.47;;
15216;SDS011;7711;46.634;14.318;2023-04-23T05:27:56;9.97;;;8.03;;
15216;SDS011;7711;46.634;14.318;2023-04-23T05:30:23;8.97;;;8.00;;
15216;SDS011;7711;46.634;14.318;2023-04-23T05:32:50;11.03;;;8.30;;
15216;SDS011;7711;46.634;14.318;2023-04-23T05:35:17;9.73;;;8.13;;
15216;SDS011;7711;46.634;14.318;2023-04-23T05:37:44;15.07;;;8.47;;
15216;SDS011;7711;46.634;14.318;2023-04-23T05:40:11;12.23;;;8.37;;
15216;SDS011;7711;46.634;14.318;2023-04-23T05:42:40;10.87;;;8.17;;
15216;SDS011;7711;46.634;14.318;2023-04-23T05:45:07;12.97;;;8.43;;
15216;SDS011;7711;46.634;14.318;2023-04-23T05:47:35;9.23;;;7.97;;
15216;SDS011;7711;46.634;14.318;2023-04-23T05:50:02;9.73;;;8.10;;
15216;SDS011;7711;46.634;14.318;2023-04-23T05:52:30;10.20;;;7.80;;
15216;SDS011;7711;46.634;14.318;2023-04-23T05:54:59;8.50;;;7.47;;
15216;SDS011;7711;46.634;14.318;2023-04-23T05:57:26;9.47;;;6.47;;
15216;SDS011;7711;46.634;14.318;2023-04-23T05:59:55;11.17;;;8.40;;
15216;SDS011;7711;46.634;14.318;2023-04-23T06:02:22;7.97;;;7.17;;
15216;SDS011;7711;46.634;14.318;2023-04-23T06:04:49;10.03;;;7.30;;
15216;SDS011;7711;46.634;14.318;2023-04-23T06:07:16;10.30;;;7.53;;
15216;SDS011;7711;46.634;14.318;2023-04-23T06:09:43;9.27;;;7.50;;
15216;SDS011;7711;46.634;14.318;2023-04-23T06:12:10;9.80;;;8.43;;
15216;SDS011;7711;46.634;14.318;2023-04-23T06:14:37;9.70;;;7.80;;
15216;SDS011;7711;46.634;14.318;2023-04-23T06:17:06;8.80;;;7.83;;
15216;SDS011;7711;46.634;14.318;2023-04-23T06:19:33;9.90;;;7.47;;
15216;SDS011;7711;46.634;14.318;2023-04-23T06:22:00;10.57;;;7.70;;
15216;SDS011;7711;46.634;14.318;2023-04-23T06:24:27;8.47;;;7.57;;
15216;SDS011;7711;46.634;14.318;2023-04-23T06:26:55;8.93;;;7.93;;
15216;SDS011;7711;46.634;14.318;2023-04-23T06:29:23;8.00;;;7.20;;
15216;SDS011;7711;46.634;14.318;2023-04-23T06:31:50;8.77;;;7.57;;
15216;SDS011;7711;46.634;14.318;2023-04-23T06:34:21;9.63;;;7.40;;
15216;SDS011;7711;46.634;14.318;2023-04-23T06:36:49;7.80;;;7.00;;
15216;SDS011;7711;46.634;14.318;2023-04-23T06:39:16;9.47;;;7.60;;
15216;SDS011;7711;46.634;14.318;2023-04-23T06:41:43;11.33;;;7.67;;
15216;SDS011;7711;46.634;14.318;2023-04-23T06:44:10;9.10;;;7.23;;
15216;SDS011;7711;46.634;14.318;2023-04-23T06:46:37;8.70;;;7.47;;
15216;SDS011;7711;46.634;14.318;2023-04-23T06:49:05;7.83;;;6.20;;
15216;SDS011;7711;46.634;14.318;2023-04-23T06:51:33;7.70;;;6.80;;
15216;SDS011;7711;46.634;14.318;2023-04-23T06:54:00;7.20;;;6.30;;
15216;SDS011;7711;46.634;14.318;2023-04-23T06:56:28;7.30;;;6.60;;
15216;SDS011;7711;46.634;14.318;2023-04-23T06:58:55;10.10;;;6.87;;
15216;SDS011;7711;46.634;14.318;2023-04-23T07:01:22;7.60;;;6.83;;
15216;SDS011;7711;46.634;14.318;2023-04-23T07:03:49;8.47;;;6.30;;
15216;SDS011;7711;46.634;14.318;2023-04-23T07:06:18;7.40;;;6.70;;
15216;SDS011;7711;46.634;14.318;2023-04-23T07:08:47;7.07;;;6.37;;
15216;SDS011;7711;46.634;14.318;2023-04-23T07:11:14;8.17;;;6.07;;
15216;SDS011;7711;46.634;14.318;2023-04-23T07:13:41;6.13;;;5.20;;
15216;SDS011;7711;46.634;14.318;2023-04-23T07:16:08;6.17;;;5.57;;
15216;SDS011;7711;46.634;14.318;2023-04-23T07:18:35;5.90;;;5.40;;
15216;SDS011;7711;46.634;14.318;2023-04-23T07:21:02;6.47;;;5.43;;
15216;SDS011;7711;46.634;14.318;2023-04-23T07:23:30;5.70;;;5.20;;
15216;SDS011;7711;46.634;14.318;2023-04-23T07:25:58;6.65;;;5.93;;
15216;SDS011;7711;46.634;14.318;2023-04-23T07:28:25;7.57;;;5.22;;
15216;SDS011;7711;46.634;14.318;2023-04-23T07:30:53;6.10;;;5.28;;
15216;SDS011;7711;46.634;14.318;2023-04-23T07:33:20;6.28;;;5.53;;
15216;SDS011;7711;46.634;14.318;2023-04-23T07:35:47;6.22;;;5.63;;
15216;SDS011;7711;46.634;14.318;2023-04-23T07:38:14;5.88;;;5.35;;
15216;SDS011;7711;46.634;14.318;2023-04-23T07:40:42;6.57;;;4.93;;
15216;SDS011;7711;46.634;14.318;2023-04-23T07:43:10;6.90;;;5.07;;
15216;SDS011;7711;46.634;14.318;2023-04-23T07:45:38;5.00;;;4.60;;
15216;SDS011;7711;46.634;14.318;2023-04-23T07:48:05;5.65;;;5.07;;
15216;SDS011;7711;46.634;14.318;2023-04-23T07:50:32;5.60;;;4.63;;
15216;SDS011;7711;46.634;14.318;2023-04-23T07:52:59;6.22;;;5.28;;
15216;SDS011;7711;46.634;14.318;2023-04-23T07:55:26;5.57;;;5.07;;
15216;SDS011;7711;46.634;14.318;2023-04-23T07:57:53;8.05;;;5.30;;
15216;SDS011;7711;46.634;14.318;2023-04-23T08:00:22;5.68;;;5.13;;
15216;SDS011;7711;46.634;14.318;2023-04-23T08:02:49;5.25;;;4.75;;
15216;SDS011;7711;46.634;14.318;2023-04-23T08:05:18;5.53;;;4.95;;
15216;SDS011;7711;46.634;14.318;2023-04-23T08:07:45;6.40;;;5.78;;
15216;SDS011;7711;46.634;14.318;2023-04-23T08:10:12;5.18;;;4.68;;
15216;SDS011;7711;46.634;14.318;2023-04-23T08:12:40;5.68;;;5.10;;
15216;SDS011;7711;46.634;14.318;2023-04-23T08:15:07;5.70;;;5.18;;
15216;SDS011;7711;46.634;14.318;2023-04-23T08:17:36;5.13;;;4.65;;
15216;SDS011;7711;46.634;14.318;2023-04-23T08:20:04;5.10;;;4.70;;
15216;SDS011;7711;46.634;14.318;2023-04-23T08:22:32;6.03;;;4.85;;
15216;SDS011;7711;46.634;14.318;2023-04-23T08:24:59;5.30;;;4.80;;
15216;SDS011;7711;46.634;14.318;2023-04-23T08:27:26;5.38;;;4.88;;
15216;SDS011;7711;46.634;14.318;2023-04-23T08:29:53;7.25;;;5.10;;
15216;SDS011;7711;46.634;14.318;2023-04-23T08:32:20;5.30;;;4.90;;
15216;SDS011;7711;46.634;14.318;2023-04-23T08:34:49;6.00;;;4.90;;
15216;SDS011;7711;46.634;14.318;2023-04-23T08:37:16;7.10;;;5.35;;
15216;SDS011;7711;46.634;14.318;2023-04-23T08:39:43;5.95;;;5.35;;
15216;SDS011;7711;46.634;14.318;2023-04-23T08:42:14;5.72;;;4.68;;
15216;SDS011;7711;46.634;14.318;2023-04-23T08:44:49;5.20;;;4.70;;
15216;SDS011;7711;46.634;14.318;2023-04-23T08:47:18;5.15;;;4.65;;
15216;SDS011;7711;46.634;14.318;2023-04-23T08:49:50;5.55;;;5.03;;
15216;SDS011;7711;46.634;14.318;2023-04-23T08:52:22;8.07;;;5.80;;
15216;SDS011;7711;46.634;14.318;2023-04-23T08:54:52;5.80;;;4.70;;
15216;SDS011;7711;46.634;14.318;2023-04-23T08:57:20;5.28;;;4.78;;
15216;SDS011;7711;46.634;14.318;2023-04-23T08:59:48;5.80;;;4.68;;
15216;SDS011;7711;46.634;14.318;2023-04-23T09:02:16;5.28;;;4.78;;
15216;SDS011;7711;46.634;14.318;2023-04-23T09:04:43;7.40;;;5.20;;
15216;SDS011;7711;46.634;14.318;2023-04-23T09:07:13;5.28;;;4.78;;
15216;SDS011;7711;46.634;14.318;2023-04-23T09:09:41;5.53;;;5.03;;
15216;SDS011;7711;46.634;14.318;2023-04-23T09:12:09;5.82;;;5.22;;
15216;SDS011;7711;46.634;14.318;2023-04-23T09:14:36;6.97;;;4.70;;
15216;SDS011;7711;46.634;14.318;2023-04-23T09:17:03;5.40;;;4.90;;
15216;SDS011;7711;46.634;14.318;2023-04-23T09:19:30;5.18;;;4.72;;
15216;SDS011;7711;46.634;14.318;2023-04-23T09:21:58;5.75;;;5.15;;
15216;SDS011;7711;46.634;14.318;2023-04-23T09:24:27;5.43;;;4.60;;
15216;SDS011;7711;46.634;14.318;2023-04-23T09:26:56;4.95;;;4.43;;
15216;SDS011;7711;46.634;14.318;2023-04-23T09:29:23;5.57;;;5.05;;
15216;SDS011;7711;46.634;14.318;2023-04-23T09:31:51;5.60;;;4.95;;
15216;SDS011;7711;46.634;14.318;2023-04-23T09:34:21;5.47;;;4.97;;
15216;SDS011;7711;46.634;14.318;2023-04-23T09:36:49;5.47;;;4.97;;
15216;SDS011;7711;46.634;14.318;2023-04-23T09:39:18;7.47;;;4.90;;
15216;SDS011;7711;46.634;14.318;2023-04-23T09:41:49;5.20;;;4.55;;
15216;SDS011;7711;46.634;14.318;2023-04-23T09:44:17;5.78;;;5.22;;
15216;SDS011;7711;46.634;14.318;2023-04-23T09:46:46;5.88;;;5.25;;
15216;SDS011;7711;46.634;14.318;2023-04-23T09:49:13;5.80;;;5.07;;
15216;SDS011;7711;46.634;14.318;2023-04-23T09:51:41;5.88;;;4.47;;
15216;SDS011;7711;46.634;14.318;2023-04-23T09:54:10;5.18;;;4.68;;
15216;SDS011;7711;46.634;14.318;2023-04-23T09:56:38;5.68;;;5.18;;
15216;SDS011;7711;46.634;14.318;2023-04-23T09:59:19;6.93;;;5.38;;
15216;SDS011;7711;46.634;14.318;2023-04-23T10:01:50;6.90;;;5.80;;
15216;SDS011;7711;46.634;14.318;2023-04-23T10:04:18;5.97;;;5.38;;
15216;SDS011;7711;46.634;14.318;2023-04-23T10:06:47;6.40;;;5.88;;
15216;SDS011;7711;46.634;14.318;2023-04-23T10:09:18;7.00;;;5.30;;
15216;SDS011;7711;46.634;14.318;2023-04-23T10:11:48;5.50;;;5.10;;
15216;SDS011;7711;46.634;14.318;2023-04-23T10:14:18;6.75;;;5.55;;
15216;SDS011;7711;46.634;14.318;2023-04-23T10:16:46;5.75;;;5.20;;
15216;SDS011;7711;46.634;14.318;2023-04-23T10:19:18;5.65;;;5.05;;
15216;SDS011;7711;46.634;14.318;2023-04-23T10:21:48;7.38;;;4.97;;
15216;SDS011;7711;46.634;14.318;2023-04-23T10:24:18;5.60;;;5.10;;
15216;SDS011;7711;46.634;14.318;2023-04-23T10:26:48;8.23;;;5.72;;
15216;SDS011;7711;46.634;14.318;2023-04-23T10:29:20;6.75;;;5.20;;
15216;SDS011;7711;46.634;14.318;2023-04-23T10:31:54;6.50;;;5.22;;
15216;SDS011;7711;46.634;14.318;2023-04-23T10:34:25;7.68;;;5.50;;
15216;SDS011;7711;46.634;14.318;2023-04-23T10:36:53;6.43;;;4.88;;
15216;SDS011;7711;46.634;14.318;2023-04-23T10:39:21;6.53;;;4.78;;
15216;SDS011;7711;46.634;14.318;2023-04-23T10:41:50;5.15;;;4.65;;
15216;SDS011;7711;46.634;14.318;2023-04-23T10:44:20;4.70;;;4.30;;
15216;SDS011;7711;46.634;14.318;2023-04-23T10:46:51;5.22;;;4.72;;
15216;SDS011;7711;46.634;14.318;2023-04-23T10:49:21;4.38;;;4.00;;
15216;SDS011;7711;46.634;14.318;2023-04-23T10:51:48;4.97;;;4.15;;
15216;SDS011;7711;46.634;14.318;2023-04-23T10:54:27;5.63;;;4.57;;
15216;SDS011;7711;46.634;14.318;2023-04-23T10:56:57;4.95;;;4.32;;
15216;SDS011;7711;46.634;14.318;2023-04-23T10:59:27;8.05;;;4.50;;
15216;SDS011;7711;46.634;14.318;2023-04-23T11:01:58;4.60;;;4.20;;
15216;SDS011;7711;46.634;14.318;2023-04-23T11:04:32;4.53;;;4.13;;
15216;SDS011;7711;46.634;14.318;2023-04-23T11:07:04;4.50;;;4.10;;
15216;SDS011;7711;46.634;14.318;2023-04-23T11:09:36;4.55;;;3.90;;
15216;SDS011;7711;46.634;14.318;2023-04-23T11:12:05;4.93;;;4.53;;
15216;SDS011;7711;46.634;14.318;2023-04-23T11:14:47;4.80;;;4.28;;
15216;SDS011;7711;46.634;14.318;2023-04-23T11:17:15;4.72;;;4.22;;
15216;SDS011;7711;46.634;14.318;2023-04-23T11:22:35;4.90;;;4.40;;
15216;SDS011;7711;46.634;14.318;2023-04-23T11:25:04;4.93;;;4.53;;
15216;SDS011;7711;46.634;14.318;2023-04-23T11:27:36;5.25;;;4.47;;
15216;SDS011;7711;46.634;14.318;2023-04-23T11:30:06;4.63;;;4.22;;
15216;SDS011;7711;46.634;14.318;2023-04-23T11:32:37;6.05;;;4.50;;
15216;SDS011;7711;46.634;14.318;2023-04-23T11:35:05;4.88;;;4.47;;
15216;SDS011;7711;46.634;14.318;2023-04-23T11:37:37;5.47;;;4.47;;
15216;SDS011;7711;46.634;14.318;2023-04-23T11:40:06;4.65;;;4.25;;
15216;SDS011;7711;46.634;14.318;2023-04-23T11:42:39;5.03;;;4.53;;
15216;SDS011;7711;46.634;14.318;2023-04-23T11:45:15;4.63;;;4.05;;
15216;SDS011;7711;46.634;14.318;2023-04-23T11:47:43;4.93;;;3.83;;
15216;SDS011;7711;46.634;14.318;2023-04-23T11:50:15;4.70;;;4.30;;
15216;SDS011;7711;46.634;14.318;2023-04-23T11:52:44;4.55;;;4.15;;
15216;SDS011;7711;46.634;14.318;2023-04-23T11:55:11;4.82;;;4.03;;
15216;SDS011;7711;46.634;14.318;2023-04-23T11:57:42;4.22;;;3.83;;
15216;SDS011;7711;46.634;14.318;2023-04-23T12:00:11;4.40;;;4.00;;
15216;SDS011;7711;46.634;14.318;2023-04-23T12:02:49;4.60;;;4.20;;
15216;SDS011;7711;46.634;14.318;2023-04-23T12:05:21;4.57;;;4.13;;
15216;SDS011;7711;46.634;14.318;2023-04-23T12:07:49;4.30;;;3.90;;
15216;SDS011;7711;46.634;14.318;2023-04-23T12:10:17;4.45;;;4.05;;
15216;SDS011;7711;46.634;14.318;2023-04-23T12:12:48;5.00;;;4.50;;
15216;SDS011;7711;46.634;14.318;2023-04-23T12:15:16;4.72;;;4.30;;
15216;SDS011;7711;46.634;14.318;2023-04-23T12:17:47;4.50;;;4.10;;
15216;SDS011;7711;46.634;14.318;2023-04-23T12:20:20;4.45;;;4.05;;
15216;SDS011;7711;46.634;14.318;2023-04-23T12:22:47;4.88;;;4.38;;
15216;SDS011;7711;46.634;14.318;2023-04-23T12:25:14;5.82;;;4.93;;
15216;SDS011;7711;46.634;14.318;2023-04-23T12:27:43;5.03;;;4.60;;
15216;SDS011;7711;46.634;14.318;2023-04-23T12:30:11;4.93;;;4.53;;
15216;SDS011;7711;46.634;14.318;2023-04-23T12:32:39;5.18;;;4.65;;
15216;SDS011;7711;46.634;14.318;2023-04-23T12:35:08;5.47;;;4.97;;
15216;SDS011;7711;46.634;14.318;2023-04-23T12:37:36;5.65;;;4.30;;
15216;SDS011;7711;46.634;14.318;2023-04-23T12:40:03;6.03;;;4.50;;
15216;SDS011;7711;46.634;14.318;2023-04-23T12:42:32;5.57;;;4.30;;
15216;SDS011;7711;46.634;14.318;2023-04-23T12:45:05;5.00;;;4.50;;
15216;SDS011;7711;46.634;14.318;2023-04-23T12:47:33;6.45;;;4.40;;
15216;SDS011;7711;46.634;14.318;2023-04-23T12:50:00;4.78;;;4.38;;
15216;SDS011;7711;46.634;14.318;2023-04-23T12:52:30;5.32;;;4.38;;
15216;SDS011;7711;46.634;14.318;2023-04-23T12:54:58;5.00;;;4.45;;
15216;SDS011;7711;46.634;14.318;2023-04-23T12:57:25;5.30;;;4.80;;
15216;SDS011;7711;46.634;14.318;2023-04-23T12:59:52;7.00;;;4.68;;
15216;SDS011;7711;46.634;14.318;2023-04-23T13:02:20;5.00;;;4.60;;
15216;SDS011;7711;46.634;14.318;2023-04-23T13:04:48;5.20;;;4.70;;
15216;SDS011;7711;46.634;14.318;2023-04-23T13:07:15;6.20;;;4.75;;
15216;SDS011;7711;46.634;14.318;2023-04-23T13:09:44;5.20;;;4.80;;
15216;SDS011;7711;46.634;14.318;2023-04-23T13:12:11;5.20;;;4.70;;
15216;SDS011;7711;46.634;14.318;2023-04-23T13:14:38;5.22;;;4.72;;
15216;SDS011;7711;46.634;14.318;2023-04-23T13:17:05;5.93;;;4.97;;
15216;SDS011;7711;46.634;14.318;2023-04-23T13:19:32;5.25;;;4.60;;
15216;SDS011;7711;46.634;14.318;2023-04-23T13:22:01;5.03;;;4.53;;
15216;SDS011;7711;46.634;14.318;2023-04-23T13:24:29;5.70;;;5.05;;
15216;SDS011;7711;46.634;14.318;2023-04-23T13:26:58;9.55;;;5.32;;
15216;SDS011;7711;46.634;14.318;2023-04-23T13:29:25;6.18;;;4.85;;
15216;SDS011;7711;46.634;14.318;2023-04-23T13:31:53;5.78;;;4.88;;
15216;SDS011;7711;46.634;14.318;2023-04-23T13:34:20;5.13;;;4.63;;
15216;SDS011;7711;46.634;14.318;2023-04-23T13:36:47;5.15;;;4.65;;
15216;SDS011;7711;46.634;14.318;2023-04-23T13:39:14;4.82;;;4.38;;
15216;SDS011;7711;46.634;14.318;2023-04-23T13:41:42;5.07;;;4.68;;
15216;SDS011;7711;46.634;14.318;2023-04-23T13:44:11;5.95;;;4.53;;
15216;SDS011;7711;46.634;14.318;2023-04-23T13:46:39;5.32;;;4.60;;
15216;SDS011;7711;46.634;14.318;2023-04-23T13:49:07;4.97;;;4.47;;
15216;SDS011;7711;46.634;14.318;2023-04-23T13:51:34;5.15;;;4.65;;
15216;SDS011;7711;46.634;14.318;2023-04-23T13:54:02;4.72;;;4.30;;
15216;SDS011;7711;46.634;14.318;2023-04-23T13:56:29;5.80;;;4.25;;
15216;SDS011;7711;46.634;14.318;2023-04-23T13:58:56;4.25;;;3.85;;
15216;SDS011;7711;46.634;14.318;2023-04-23T14:01:28;4.85;;;4.00;;
15216;SDS011;7711;46.634;14.318;2023-04-23T14:03:55;5.35;;;3.92;;
15216;SDS011;7711;46.634;14.318;2023-04-23T14:06:22;4.68;;;3.80;;
15216;SDS011;7711;46.634;14.318;2023-04-23T14:08:49;4.63;;;3.83;;
15216;SDS011;7711;46.634;14.318;2023-04-23T14:11:16;7.95;;;4.28;;
15216;SDS011;7711;46.634;14.318;2023-04-23T14:13:44;5.25;;;4.10;;
15216;SDS011;7711;46.634;14.318;2023-04-23T14:16:11;4.30;;;3.90;;
15216;SDS011;7711;46.634;14.318;2023-04-23T14:18:39;5.85;;;4.07;;
15216;SDS011;7711;46.634;14.318;2023-04-23T14:21:06;5.60;;;4.38;;
15216;SDS011;7711;46.634;14.318;2023-04-23T14:26:20;4.10;;;3.70;;
15216;SDS011;7711;46.634;14.318;2023-04-23T14:28:53;4.38;;;3.95;;
15216;SDS011;7711;46.634;14.318;2023-04-23T14:31:22;5.93;;;4.30;;
15216;SDS011;7711;46.634;14.318;2023-04-23T14:33:51;5.15;;;3.92;;
15216;SDS011;7711;46.634;14.318;2023-04-23T14:36:20;4.75;;;4.20;;
15216;SDS011;7711;46.634;14.318;2023-04-23T14:38:47;7.80;;;4.55;;
15216;SDS011;7711;46.634;14.318;2023-04-23T14:41:14;4.50;;;4.10;;
15216;SDS011;7711;46.634;14.318;2023-04-23T14:43:41;6.43;;;4.10;;
15216;SDS011;7711;46.634;14.318;2023-04-23T14:46:09;5.13;;;4.20;;
15216;SDS011;7711;46.634;14.318;2023-04-23T14:48:36;5.60;;;3.95;;
15216;SDS011;7711;46.634;14.318;2023-04-23T14:51:05;6.03;;;3.90;;
15216;SDS011;7711;46.634;14.318;2023-04-23T14:53:32;5.50;;;3.90;;